sensor_id;sensor_type;location;lat;lon;timestamp;pressure;altitude;pressure_sealevel;temperature;humidity
45941;BME280;31858;46.008;8.978;2024-01-15T00:08:22;93355.34;;;2.49;100.00
45941;BME280;31858;46.008;8.978;2024-01-15T00:18:25;93335.94;;;2.57;100.00
45941;BME280;31858;46.008;8.978;2024-01-15T00:28:27;93348.13;;;2.46;100.00
45941;BME280;31858;46.008;8.978;2024-01-15T00:38:30;93332.31;;;2.43;100.00
45941;BME280;31858;46.008;8.978;2024-01-15T00:48:31;93308.94;;;2.38;100.00
45941;BME280;31858;46.008;8.978;2024-01-15T00:58:34;93278.78;;;2.32;100.00
45941;BME280;31858;46.008;8.978;2024-01-15T01:08:36;93259.09;;;2.22;100.00
45941;BME280;31858;46.008;8.978;2024-01-15T01:18:39;93280.31;;;2.13;100.00
45941;BME280;31858;46.008;8.978;2024-01-15T01:28:40;93260.78;;;2.34;100.00
45941;BME280;31858;46.008;8.978;2024-01-15T01:38:43;93259.16;;;2.25;100.00
45941;BME280;31858;46.008;8.978;2024-01-15T01:48:45;93250.34;;;1.95;100.00
45941;BME280;31858;46.008;8.978;2024-01-15T01:58:48;93233.53;;;2.00;100.00
45941;BME280;31858;46.008;8.978;2024-01-15T02:08:50;93237.53;;;2.13;100.00
45941;BME280;31858;46.008;8.978;2024-01-15T02:18:53;93225.72;;;2.03;100.00
45941;BME280;31858;46.008;8.978;2024-01-15T02:28:56;93203.16;;;1.79;100.00
45941;BME280;31858;46.008;8.978;2024-01-15T02:38:57;93187.28;;;1.95;100.00
45941;BME280;31858;46.008;8.978;2024-01-15T02:49:00;93177.13;;;1.93;100.00
45941;BME280;31858;46.008;8.978;2024-01-15T02:59:02;93175.44;;;1.82;100.00
45941;BME280;31858;46.008;8.978;2024-01-15T03:09:05;93158.50;;;1.79;100.00
45941;BME280;31858;46.008;8.978;2024-01-15T03:19:07;93154.88;;;1.87;100.00
45941;BME280;31858;46.008;8.978;2024-01-15T03:29:10;93138.19;;;1.76;100.00
45941;BME280;31858;46.008;8.978;2024-01-15T03:39:11;93132.06;;;1.69;100.00
45941;BME280;31858;46.008;8.978;2024-01-15T03:49:14;93122.25;;;1.66;100.00
45941;BME280;31858;46.008;8.978;2024-01-15T03:59:16;93115.66;;;1.75;100.00
45941;BME280;31858;46.008;8.978;2024-01-15T04:09:19;93103.94;;;1.69;100.00
45941;BME280;31858;46.008;8.978;2024-01-15T04:19:20;93087.53;;;1.53;100.00
45941;BME280;31858;46.008;8.978;2024-01-15T04:29:23;93072.59;;;1.57;100.00
45941;BME280;31858;46.008;8.978;2024-01-15T04:39:25;93063.25;;;1.37;100.00
45941;BME280;31858;46.008;8.978;2024-01-15T04:49:27;93044.75;;;1.52;100.00
45941;BME280;31858;46.008;8.978;2024-01-15T04:59:30;93034.97;;;1.49;100.00
45941;BME280;31858;46.008;8.978;2024-01-15T05:09:33;93036.50;;;1.27;100.00
45941;BME280;31858;46.008;8.978;2024-01-15T05:19:34;93035.47;;;1.13;100.00
45941;BME280;31858;46.008;8.978;2024-01-15T05:29:37;93047.50;;;1.14;100.00
45941;BME280;31858;46.008;8.978;2024-01-15T05:39:39;93038.03;;;1.09;100.00
45941;BME280;31858;46.008;8.978;2024-01-15T05:49:42;93036.03;;;1.22;100.00
45941;BME280;31858;46.008;8.978;2024-01-15T05:59:44;93015.53;;;1.08;100.00
45941;BME280;31858;46.008;8.978;2024-01-15T06:09:47;93011.00;;;0.86;100.00
45941;BME280;31858;46.008;8.978;2024-01-15T06:19:50;93008.59;;;0.96;100.00
45941;BME280;31858;46.008;8.978;2024-01-15T06:29:53;92993.69;;;0.81;100.00
45941;BME280;31858;46.008;8.978;2024-01-15T06:39:56;92977.47;;;1.18;100.00
45941;BME280;31858;46.008;8.978;2024-01-15T06:49:59;92987.13;;;0.91;100.00
45941;BME280;31858;46.008;8.978;2024-01-15T07:00:00;92993.22;;;0.76;100.00
45941;BME280;31858;46.008;8.978;2024-01-15T07:10:07;93001.00;;;0.91;100.00
45941;BME280;31858;46.008;8.978;2024-01-15T07:20:10;93013.75;;;0.93;100.00
45941;BME280;31858;46.008;8.978;2024-01-15T07:30:13;93034.34;;;0.91;100.00
45941;BME280;31858;46.008;8.978;2024-01-15T07:40:15;93027.78;;;1.01;100.00
45941;BME280;31858;46.008;8.978;2024-01-15T07:50:18;93026.47;;;0.91;100.00
45941;BME280;31858;46.008;8.978;2024-01-15T08:00:20;93029.78;;;0.88;100.00
45941;BME280;31858;46.008;8.978;2024-01-15T08:10:23;93009.09;;;0.83;100.00
45941;BME280;31858;46.008;8.978;2024-01-15T08:20:24;92988.25;;;0.90;100.00
45941;BME280;31858;46.008;8.978;2024-01-15T08:30:27;92973.81;;;0.80;100.00
45941;BME280;31858;46.008;8.978;2024-01-15T08:40:29;92982.56;;;0.88;100.00
45941;BME280;31858;46.008;8.978;2024-01-15T08:50:32;92995.81;;;0.95;100.00
45941;BME280;31858;46.008;8.978;2024-01-15T09:00:34;92974.09;;;1.17;100.00
45941;BME280;31858;46.008;8.978;2024-01-15T09:10:37;92978.25;;;1.18;100.00
45941;BME280;31858;46.008;8.978;2024-01-15T09:20:38;92988.66;;;0.92;100.00
45941;BME280;31858;46.008;8.978;2024-01-15T09:30:41;93007.81;;;0.96;100.00
45941;BME280;31858;46.008;8.978;2024-01-15T09:40:45;93015.19;;;1.10;100.00
45941;BME280;31858;46.008;8.978;2024-01-15T09:50:49;92998.38;;;1.60;100.00
45941;BME280;31858;46.008;8.978;2024-01-15T10:00:51;92993.00;;;1.76;100.00
45941;BME280;31858;46.008;8.978;2024-01-15T10:10:54;92984.47;;;1.82;100.00
45941;BME280;31858;46.008;8.978;2024-01-15T10:20:56;92974.31;;;2.07;100.00
45941;BME280;31858;46.008;8.978;2024-01-15T10:31:00;92943.28;;;2.46;100.00
45941;BME280;31858;46.008;8.978;2024-01-15T10:41:02;92948.91;;;2.82;100.00
45941;BME280;31858;46.008;8.978;2024-01-15T10:51:05;92946.13;;;3.05;100.00
45941;BME280;31858;46.008;8.978;2024-01-15T11:01:11;92913.34;;;3.43;100.00
45941;BME280;31858;46.008;8.978;2024-01-15T11:11:17;92899.84;;;3.48;100.00
45941;BME280;31858;46.008;8.978;2024-01-15T11:21:22;92878.53;;;3.67;100.00
45941;BME280;31858;46.008;8.978;2024-01-15T11:31:59;92860.59;;;3.94;100.00
45941;BME280;31858;46.008;8.978;2024-01-15T11:42:02;92831.69;;;4.12;100.00
45941;BME280;31858;46.008;8.978;2024-01-15T11:52:06;92819.69;;;4.29;100.00
45941;BME280;31858;46.008;8.978;2024-01-15T12:02:08;92811.44;;;4.44;100.00
45941;BME280;31858;46.008;8.978;2024-01-15T12:12:18;92791.13;;;4.59;100.00
45941;BME280;31858;46.008;8.978;2024-01-15T12:22:22;92760.97;;;4.71;100.00
45941;BME280;31858;46.008;8.978;2024-01-15T12:32:25;92758.34;;;4.88;100.00
45941;BME280;31858;46.008;8.978;2024-01-15T12:42:27;92773.03;;;5.07;100.00
45941;BME280;31858;46.008;8.978;2024-01-15T12:52:30;92758.28;;;5.24;100.00
45941;BME280;31858;46.008;8.978;2024-01-15T13:02:32;92743.53;;;5.41;100.00
45941;BME280;31858;46.008;8.978;2024-01-15T13:12:37;92741.22;;;5.64;100.00
45941;BME280;31858;46.008;8.978;2024-01-15T13:22:38;92723.41;;;5.82;100.00
45941;BME280;31858;46.008;8.978;2024-01-15T13:32:41;92725.16;;;6.14;100.00
45941;BME280;31858;46.008;8.978;2024-01-15T13:42:43;92706.84;;;6.44;100.00
45941;BME280;31858;46.008;8.978;2024-01-15T13:52:46;92711.75;;;6.42;100.00
45941;BME280;31858;46.008;8.978;2024-01-15T14:02:48;92678.72;;;6.61;100.00
45941;BME280;31858;46.008;8.978;2024-01-15T14:12:50;92663.53;;;6.69;100.00
45941;BME280;31858;46.008;8.978;2024-01-15T14:22:52;92680.16;;;6.69;100.00
45941;BME280;31858;46.008;8.978;2024-01-15T14:32:55;92687.34;;;6.69;100.00
45941;BME280;31858;46.008;8.978;2024-01-15T14:42:57;92690.00;;;6.69;100.00
45941;BME280;31858;46.008;8.978;2024-01-15T14:53:00;92684.69;;;6.72;100.00
45941;BME280;31858;46.008;8.978;2024-01-15T15:03:02;92676.41;;;6.67;100.00
45941;BME280;31858;46.008;8.978;2024-01-15T15:13:05;92687.41;;;6.62;100.00
45941;BME280;31858;46.008;8.978;2024-01-15T15:23:07;92681.78;;;6.56;100.00
45941;BME280;31858;46.008;8.978;2024-01-15T15:33:12;92686.41;;;6.48;100.00
45941;BME280;31858;46.008;8.978;2024-01-15T15:43:16;92695.56;;;6.37;100.00
45941;BME280;31858;46.008;8.978;2024-01-15T15:53:19;92722.88;;;6.19;100.00
45941;BME280;31858;46.008;8.978;2024-01-15T16:03:22;92718.81;;;5.97;100.00
45941;BME280;31858;46.008;8.978;2024-01-15T16:13:25;92740.41;;;5.74;100.00
45941;BME280;31858;46.008;8.978;2024-01-15T16:23:26;92748.41;;;5.60;100.00
45941;BME280;31858;46.008;8.978;2024-01-15T16:33:29;92746.53;;;5.46;100.00
45941;BME280;31858;46.008;8.978;2024-01-15T16:43:31;92741.28;;;5.32;100.00
45941;BME280;31858;46.008;8.978;2024-01-15T16:53:34;92759.84;;;4.93;100.00
45941;BME280;31858;46.008;8.978;2024-01-15T17:03:36;92765.50;;;5.09;100.00
45941;BME280;31858;46.008;8.978;2024-01-15T17:13:39;92786.63;;;4.84;100.00
45941;BME280;31858;46.008;8.978;2024-01-15T17:23:40;92785.84;;;4.77;100.00
45941;BME280;31858;46.008;8.978;2024-01-15T17:33:43;92801.31;;;4.96;100.00
45941;BME280;31858;46.008;8.978;2024-01-15T17:43:45;92814.91;;;4.98;74.91
45941;BME280;31858;46.008;8.978;2024-01-15T17:53:47;92827.69;;;5.24;55.72
45941;BME280;31858;46.008;8.978;2024-01-15T18:03:50;92844.63;;;5.66;53.04
45941;BME280;31858;46.008;8.978;2024-01-15T18:13:54;92855.94;;;5.77;48.51
45941;BME280;31858;46.008;8.978;2024-01-15T18:23:55;92872.91;;;5.80;43.88
45941;BME280;31858;46.008;8.978;2024-01-15T18:33:58;92890.66;;;5.86;43.59
45941;BME280;31858;46.008;8.978;2024-01-15T18:44:00;92886.88;;;5.98;42.14
45941;BME280;31858;46.008;8.978;2024-01-15T18:54:03;92903.06;;;6.25;38.20
45941;BME280;31858;46.008;8.978;2024-01-15T19:04:05;92913.25;;;6.23;37.88
45941;BME280;31858;46.008;8.978;2024-01-15T19:14:08;92932.53;;;6.20;38.02
45941;BME280;31858;46.008;8.978;2024-01-15T19:24:10;92946.50;;;6.28;38.48
45941;BME280;31858;46.008;8.978;2024-01-15T19:34:13;92949.19;;;6.03;38.62
45941;BME280;31858;46.008;8.978;2024-01-15T19:44:14;92951.84;;;5.96;36.93
45941;BME280;31858;46.008;8.978;2024-01-15T19:54:17;92978.25;;;6.24;37.59
45941;BME280;31858;46.008;8.978;2024-01-15T20:04:19;92990.72;;;6.13;34.62
45941;BME280;31858;46.008;8.978;2024-01-15T20:14:22;93001.69;;;6.15;34.28
45941;BME280;31858;46.008;8.978;2024-01-15T20:24:24;93000.13;;;6.39;32.30
45941;BME280;31858;46.008;8.978;2024-01-15T20:34:27;93018.97;;;6.51;31.76
45941;BME280;31858;46.008;8.978;2024-01-15T20:44:29;93025.78;;;6.52;31.77
45941;BME280;31858;46.008;8.978;2024-01-15T20:54:32;93034.84;;;6.59;31.15
45941;BME280;31858;46.008;8.978;2024-01-15T21:04:33;93035.59;;;6.59;30.43
45941;BME280;31858;46.008;8.978;2024-01-15T21:14:37;93038.63;;;6.58;31.58
45941;BME280;31858;46.008;8.978;2024-01-15T21:24:38;93041.34;;;6.40;30.70
45941;BME280;31858;46.008;8.978;2024-01-15T21:34:41;93042.47;;;6.28;31.14
45941;BME280;31858;46.008;8.978;2024-01-15T21:44:43;93045.88;;;6.14;30.12
45941;BME280;31858;46.008;8.978;2024-01-15T21:54:47;93056.84;;;6.27;30.36
45941;BME280;31858;46.008;8.978;2024-01-15T22:04:48;93059.09;;;6.36;28.74
45941;BME280;31858;46.008;8.978;2024-01-15T22:14:51;93069.69;;;6.36;28.10
45941;BME280;31858;46.008;8.978;2024-01-15T22:24:53;93075.66;;;6.65;26.77
45941;BME280;31858;46.008;8.978;2024-01-15T22:34:55;93087.03;;;6.58;26.44
45941;BME280;31858;46.008;8.978;2024-01-15T22:44:57;93089.34;;;6.31;27.57
45941;BME280;31858;46.008;8.978;2024-01-15T22:55:00;93108.97;;;6.37;26.44
45941;BME280;31858;46.008;8.978;2024-01-15T23:05:02;93115.75;;;6.52;25.34
45941;BME280;31858;46.008;8.978;2024-01-15T23:15:07;93124.09;;;6.40;28.98
45941;BME280;31858;46.008;8.978;2024-01-15T23:25:09;93127.09;;;6.03;30.13
45941;BME280;31858;46.008;8.978;2024-01-15T23:35:14;93140.25;;;5.82;29.88
45941;BME280;31858;46.008;8.978;2024-01-15T23:45:15;93148.47;;;5.52;31.11
45941;BME280;31858;46.008;8.978;2024-01-15T23:55:18;93150.59;;;5.21;32.08
